createdAt,value
2023-02-19T00:02:00.895Z,12.70
2023-02-19T00:04:29.453Z,12.60
2023-02-19T00:06:57.818Z,12.70
2023-02-19T00:09:26.881Z,12.70
2023-02-19T00:11:55.223Z,12.70
2023-02-19T00:14:23.756Z,12.70
2023-02-19T00:16:52.012Z,12.70
2023-02-19T00:19:22.791Z,12.70
2023-02-19T00:21:53.265Z,12.70
2023-02-19T00:24:22.617Z,12.70
2023-02-19T00:26:51.171Z,12.80
2023-02-19T00:29:22.088Z,12.60
2023-02-19T00:31:51.175Z,12.60
2023-02-19T00:34:21.626Z,12.60
2023-02-19T00:36:49.944Z,12.60
2023-02-19T00:39:18.802Z,12.60
2023-02-19T00:41:47.484Z,12.60
2023-02-19T00:44:16.393Z,12.60
2023-02-19T00:46:46.209Z,12.60
2023-02-19T00:49:18.609Z,12.60
2023-02-19T00:51:48.928Z,12.60
2023-02-19T00:54:17.954Z,12.60
2023-02-19T00:56:47.517Z,12.60
2023-02-19T00:59:15.965Z,12.60
2023-02-19T01:01:45.449Z,12.60
2023-02-19T01:04:15.058Z,12.60
2023-02-19T01:06:43.700Z,12.50
2023-02-19T01:09:13.689Z,12.60
2023-02-19T01:11:42.846Z,12.60
2023-02-19T01:14:11.352Z,12.50
2023-02-19T01:16:39.652Z,12.60
2023-02-19T01:19:08.884Z,12.60
2023-02-19T01:21:37.417Z,12.60
2023-02-19T01:24:06.091Z,12.60
2023-02-19T01:26:36.140Z,12.60
2023-02-19T01:29:05.730Z,12.60
2023-02-19T01:31:34.533Z,12.60
2023-02-19T01:34:06.426Z,12.60
2023-02-19T01:36:37.049Z,12.60
2023-02-19T01:39:07.192Z,12.60
2023-02-19T01:41:41.651Z,12.50
2023-02-19T01:44:48.922Z,12.60
2023-02-19T01:47:19.886Z,12.60
2023-02-19T01:49:53.446Z,12.60
2023-02-19T01:52:26.915Z,12.50
2023-02-19T01:54:57.891Z,12.80
2023-02-19T01:57:29.828Z,12.50
2023-02-19T02:00:03.141Z,12.50
2023-02-19T02:02:42.376Z,12.50
2023-02-19T02:05:17.139Z,12.10
2023-02-19T02:08:02.916Z,12.50
2023-02-19T02:10:31.400Z,12.50
2023-02-19T02:13:01.108Z,12.50
2023-02-19T02:15:36.371Z,12.50
2023-02-19T02:18:13.502Z,12.40
2023-02-19T02:20:58.486Z,12.40
2023-02-19T02:23:39.602Z,12.40
2023-02-19T02:26:23.448Z,12.40
2023-02-19T02:29:10.708Z,12.40
2023-02-19T02:31:43.479Z,12.40
2023-02-19T02:34:16.173Z,12.40
2023-02-19T02:36:47.931Z,12.40
2023-02-19T02:39:21.633Z,12.40
2023-02-19T02:42:13.003Z,12.50
2023-02-19T02:45:04.693Z,12.40
2023-02-19T02:47:43.183Z,12.50
2023-02-19T02:50:15.717Z,12.40
2023-02-19T02:53:03.742Z,12.40
2023-02-19T02:55:37.271Z,12.40
2023-02-19T02:58:06.413Z,12.40
2023-02-19T03:00:53.176Z,12.40
2023-02-19T03:03:26.118Z,12.40
2023-02-19T03:05:59.967Z,12.40
2023-02-19T03:08:33.896Z,12.30
2023-02-19T03:11:25.511Z,12.30
2023-02-19T03:14:20.636Z,12.30
2023-02-19T03:17:10.006Z,12.30
2023-02-19T03:19:46.643Z,12.30
2023-02-19T03:22:20.070Z,12.20
2023-02-19T03:25:25.669Z,12.20
2023-02-19T03:27:56.897Z,12.20
2023-02-19T03:30:29.415Z,12.20
2023-02-19T03:33:02.076Z,12.20
2023-02-19T03:35:34.873Z,12.20
2023-02-19T03:38:10.397Z,12.20
2023-02-19T03:40:46.227Z,12.30
2023-02-19T03:43:20.728Z,12.30
2023-02-19T03:46:00.236Z,12.30
2023-02-19T03:48:35.464Z,12.30
2023-02-19T03:51:21.657Z,12.30
2023-02-19T03:53:58.486Z,12.30
2023-02-19T03:56:33.909Z,12.30
2023-02-19T03:59:09.985Z,12.30
2023-02-19T04:01:43.899Z,12.40
2023-02-19T04:04:18.664Z,12.40
2023-02-19T04:06:52.762Z,12.40
2023-02-19T04:09:23.061Z,12.40
2023-02-19T04:12:00.760Z,12.30
2023-02-19T04:14:34.022Z,12.30
2023-02-19T04:17:06.775Z,12.30
2023-02-19T04:19:39.875Z,12.30
2023-02-19T04:22:11.492Z,12.30
2023-02-19T04:24:43.948Z,12.30
2023-02-19T04:27:14.510Z,12.30
2023-02-19T04:29:45.504Z,12.30
2023-02-19T04:32:15.705Z,12.30
2023-02-19T04:34:47.750Z,12.20
2023-02-19T04:37:20.371Z,12.20
2023-02-19T04:39:51.943Z,12.10
2023-02-19T04:42:20.404Z,12.10
2023-02-19T04:44:50.551Z,12.10
2023-02-19T04:47:21.193Z,12.10
2023-02-19T04:49:50.423Z,12.10
2023-02-19T04:52:21.683Z,12.00
2023-02-19T04:54:52.261Z,11.70
2023-02-19T04:57:21.558Z,12.00
2023-02-19T04:59:52.124Z,11.90
2023-02-19T05:02:23.513Z,11.90
2023-02-19T05:04:53.753Z,11.90
2023-02-19T05:07:25.799Z,11.90
2023-02-19T05:09:55.365Z,11.90
2023-02-19T05:12:27.570Z,11.90
2023-02-19T05:14:57.662Z,12.10
2023-02-19T05:17:26.878Z,11.90
2023-02-19T05:19:56.694Z,11.80
2023-02-19T05:22:29.696Z,11.80
2023-02-19T05:24:58.542Z,11.80
2023-02-19T05:27:32.523Z,11.80
2023-02-19T05:30:03.491Z,11.80
2023-02-19T05:32:34.773Z,11.80
2023-02-19T05:35:04.527Z,11.80
2023-02-19T05:37:35.254Z,11.80
2023-02-19T05:40:06.405Z,11.80
2023-02-19T05:42:37.307Z,11.90
2023-02-19T05:45:07.231Z,12.20
2023-02-19T05:47:36.641Z,11.70
2023-02-19T05:50:05.868Z,11.70
2023-02-19T05:52:36.768Z,11.70
2023-02-19T05:55:08.364Z,11.80
2023-02-19T05:57:43.763Z,11.80
2023-02-19T06:00:14.265Z,11.80
2023-02-19T06:02:43.335Z,11.80
2023-02-19T06:05:12.646Z,11.80
2023-02-19T06:07:44.053Z,11.80
2023-02-19T06:10:14.647Z,11.80
2023-02-19T06:12:44.483Z,11.80
2023-02-19T06:15:13.624Z,11.80
2023-02-19T06:17:43.858Z,11.70
2023-02-19T06:20:13.406Z,11.50
2023-02-19T06:22:43.549Z,11.80
2023-02-19T06:25:16.883Z,11.80
2023-02-19T06:27:45.567Z,11.80
2023-02-19T06:30:15.024Z,11.70
2023-02-19T06:32:43.797Z,11.80
2023-02-19T06:35:13.695Z,11.80
2023-02-19T06:37:44.281Z,11.80
2023-02-19T06:40:13.761Z,11.80
2023-02-19T06:42:43.600Z,11.80
2023-02-19T06:45:12.548Z,11.50
2023-02-19T06:47:41.797Z,11.80
2023-02-19T06:50:11.021Z,11.80
2023-02-19T06:52:39.805Z,12.10
2023-02-19T06:55:12.473Z,11.80
2023-02-19T06:57:41.278Z,11.80
2023-02-19T07:00:11.814Z,11.70
2023-02-19T07:02:40.485Z,11.70
2023-02-19T07:05:09.086Z,11.70
2023-02-19T07:07:37.465Z,11.70
2023-02-19T07:10:06.615Z,11.70
2023-02-19T07:12:36.480Z,11.70
2023-02-19T07:15:05.163Z,11.70
2023-02-19T07:17:34.846Z,11.70
2023-02-19T07:20:04.402Z,11.70
2023-02-19T07:22:32.718Z,11.70
2023-02-19T07:25:01.112Z,11.70
2023-02-19T07:27:29.499Z,11.90
2023-02-19T07:29:59.326Z,11.60
2023-02-19T07:32:27.699Z,11.70
2023-02-19T07:34:55.967Z,11.70
2023-02-19T07:37:24.372Z,11.70
2023-02-19T07:39:52.746Z,11.70
2023-02-19T07:42:21.157Z,11.70
2023-02-19T07:44:49.542Z,11.70
2023-02-19T07:47:19.497Z,11.70
2023-02-19T07:49:47.856Z,11.60
2023-02-19T07:52:16.207Z,11.60
2023-02-19T07:54:44.662Z,11.60
2023-02-19T07:57:13.157Z,11.70
2023-02-19T07:59:41.950Z,11.70
2023-02-19T08:02:34.512Z,11.70
2023-02-19T08:05:05.165Z,11.70
2023-02-19T08:07:33.983Z,11.70
2023-02-19T08:10:17.178Z,11.70
2023-02-19T08:13:03.488Z,11.70
2023-02-19T08:15:33.845Z,11.70
2023-02-19T08:18:02.315Z,11.70
2023-02-19T08:20:32.239Z,11.80
2023-02-19T08:23:00.952Z,11.80
2023-02-19T08:25:29.337Z,11.70
2023-02-19T08:27:57.940Z,11.90
2023-02-19T08:30:26.798Z,11.80
2023-02-19T08:32:55.698Z,11.80
2023-02-19T08:35:24.336Z,11.80
2023-02-19T08:37:56.611Z,11.80
2023-02-19T08:40:25.152Z,11.80
2023-02-19T08:42:53.848Z,11.80
2023-02-19T08:45:23.363Z,11.80
2023-02-19T08:47:51.839Z,11.90
2023-02-19T08:50:20.215Z,11.90
2023-02-19T08:52:48.684Z,11.90
2023-02-19T08:55:21.326Z,11.90
2023-02-19T08:57:50.651Z,11.90
2023-02-19T09:00:19.716Z,11.90
2023-02-19T09:02:48.318Z,11.90
2023-02-19T09:05:17.927Z,11.90
2023-02-19T09:07:46.283Z,11.90
2023-02-19T09:10:16.176Z,11.90
2023-02-19T09:12:47.328Z,11.80
2023-02-19T09:15:16.121Z,11.90
2023-02-19T09:17:44.547Z,11.90
2023-02-19T09:20:13.362Z,11.90
2023-02-19T09:22:41.955Z,11.90
2023-02-19T09:25:10.425Z,11.90
2023-02-19T09:27:39.057Z,11.80
2023-02-19T09:30:09.926Z,11.80
2023-02-19T09:32:38.406Z,11.80
2023-02-19T09:35:07.522Z,11.80
2023-02-19T09:37:36.059Z,11.80
2023-02-19T09:40:04.648Z,11.70
2023-02-19T09:42:34.864Z,11.70
2023-02-19T09:45:05.584Z,11.70
2023-02-19T09:47:36.115Z,11.60
2023-02-19T09:50:09.127Z,11.60
2023-02-19T09:52:39.730Z,11.60
2023-02-19T09:55:16.401Z,11.60
2023-02-19T09:57:46.494Z,11.60
2023-02-19T10:00:24.066Z,11.60
2023-02-19T10:02:56.189Z,11.50
2023-02-19T10:05:26.100Z,11.50
2023-02-19T10:07:56.025Z,11.50
2023-02-19T10:10:31.852Z,11.50
2023-02-19T10:13:12.582Z,11.60
2023-02-19T10:15:46.664Z,11.50
2023-02-19T10:18:19.832Z,11.50
2023-02-19T10:20:49.185Z,11.50
2023-02-19T10:23:18.322Z,11.60
2023-02-19T10:25:48.995Z,11.60
2023-02-19T10:28:20.586Z,11.60
2023-02-19T10:30:54.186Z,11.60
2023-02-19T10:33:24.999Z,11.60
2023-02-19T10:35:56.676Z,11.60
2023-02-19T10:38:29.452Z,11.60
2023-02-19T10:41:05.380Z,11.60
2023-02-19T10:43:39.927Z,11.60
2023-02-19T10:46:17.344Z,11.60
2023-02-19T10:48:51.696Z,11.60
2023-02-19T10:51:22.973Z,11.60
2023-02-19T10:54:03.825Z,11.60
2023-02-19T10:56:33.707Z,11.60
2023-02-19T10:59:22.038Z,11.60
2023-02-19T11:01:58.862Z,11.50
2023-02-19T11:04:34.036Z,11.50
2023-02-19T11:07:10.468Z,11.50
2023-02-19T11:09:41.536Z,11.50
2023-02-19T11:12:11.272Z,11.50
2023-02-19T11:14:43.682Z,11.40
2023-02-19T11:17:24.496Z,11.40
2023-02-19T11:19:56.491Z,11.40
2023-02-19T11:22:32.465Z,11.40
2023-02-19T11:25:05.624Z,11.20
2023-02-19T11:27:35.120Z,11.40
2023-02-19T11:30:28.605Z,11.50
2023-02-19T11:32:57.055Z,11.50
2023-02-19T11:35:27.379Z,11.50
2023-02-19T11:37:58.280Z,11.50
2023-02-19T11:40:38.860Z,11.50
2023-02-19T11:43:19.326Z,11.50
2023-02-19T11:45:54.708Z,11.40
2023-02-19T11:48:45.205Z,11.40
2023-02-19T11:51:36.929Z,11.40
2023-02-19T11:54:18.694Z,11.30
2023-02-19T11:56:52.118Z,11.40
2023-02-19T11:59:28.865Z,11.40
2023-02-19T12:02:31.049Z,11.40
2023-02-19T12:05:29.730Z,11.40
2023-02-19T12:08:29.173Z,11.40
2023-02-19T12:11:21.660Z,11.40
2023-02-19T12:14:17.076Z,11.40
2023-02-19T12:16:53.790Z,11.40
2023-02-19T12:19:49.730Z,11.50
2023-02-19T12:22:29.570Z,11.50
2023-02-19T12:25:37.229Z,11.50
2023-02-19T12:28:36.568Z,11.50
2023-02-19T12:31:33.058Z,11.60
2023-02-19T12:34:29.885Z,11.60
2023-02-19T12:37:12.865Z,11.70
2023-02-19T12:39:52.118Z,11.70
2023-02-19T12:42:34.927Z,11.70
2023-02-19T12:45:09.483Z,11.80
2023-02-19T12:47:43.451Z,11.80
2023-02-19T12:50:21.302Z,11.80
2023-02-19T12:52:54.375Z,11.80
2023-02-19T12:55:25.248Z,11.80
2023-02-19T12:57:56.667Z,11.80
2023-02-19T13:00:32.804Z,11.80
2023-02-19T13:03:06.612Z,11.80
2023-02-19T13:05:43.478Z,11.80
2023-02-19T13:08:19.571Z,11.80
2023-02-19T13:10:51.667Z,11.80
2023-02-19T13:13:24.947Z,11.80
2023-02-19T13:15:58.202Z,11.90
2023-02-19T13:18:34.333Z,11.90
2023-02-19T13:21:04.377Z,11.90
2023-02-19T13:23:53.756Z,11.90
2023-02-19T13:26:53.452Z,11.90
2023-02-19T13:29:38.877Z,11.90
2023-02-19T13:32:26.038Z,11.90
2023-02-19T13:35:12.225Z,11.80
2023-02-19T13:37:40.983Z,11.80
2023-02-19T13:40:23.942Z,11.80
2023-02-19T13:42:55.835Z,11.80
2023-02-19T13:45:32.059Z,11.80
2023-02-19T13:48:03.148Z,11.80
2023-02-19T13:50:33.974Z,11.90
2023-02-19T13:53:03.559Z,11.70
2023-02-19T13:55:53.537Z,12.00
2023-02-19T13:58:57.445Z,12.00
2023-02-19T14:02:15.883Z,12.00
2023-02-19T14:04:54.541Z,12.00
2023-02-19T14:07:52.565Z,12.10
2023-02-19T14:11:02.436Z,12.00
2023-02-19T14:14:11.209Z,12.10
2023-02-19T14:17:04.896Z,12.10
2023-02-19T14:19:56.057Z,12.10
2023-02-19T14:23:07.360Z,12.00
2023-02-19T14:25:52.814Z,12.00
2023-02-19T14:28:39.041Z,12.00
2023-02-19T14:31:29.898Z,11.90
2023-02-19T14:34:03.267Z,12.00
2023-02-19T14:36:39.829Z,12.00
2023-02-19T14:39:14.111Z,12.00
2023-02-19T14:41:46.977Z,12.00
2023-02-19T14:44:23.379Z,12.10
2023-02-19T14:47:00.088Z,12.10
2023-02-19T14:49:36.915Z,12.10
2023-02-19T14:52:09.014Z,12.10
2023-02-19T14:54:43.511Z,12.10
2023-02-19T14:57:20.736Z,12.10
2023-02-19T14:59:58.348Z,12.10
2023-02-19T15:02:28.840Z,12.00
2023-02-19T15:04:57.451Z,12.00
2023-02-19T15:07:31.032Z,12.10
2023-02-19T15:10:05.071Z,12.10
2023-02-19T15:12:40.109Z,12.10
2023-02-19T15:15:09.458Z,12.00
2023-02-19T15:17:39.987Z,12.10
2023-02-19T15:20:13.127Z,12.10
2023-02-19T15:22:43.144Z,12.10
2023-02-19T15:25:18.815Z,12.10
2023-02-19T15:27:47.231Z,12.10
2023-02-19T15:30:23.709Z,12.20
2023-02-19T15:32:57.259Z,12.20
2023-02-19T15:35:28.129Z,12.20
2023-02-19T15:37:58.263Z,12.20
2023-02-19T15:40:30.763Z,12.30
2023-02-19T15:43:00.254Z,12.30
2023-02-19T15:45:32.730Z,12.30
2023-02-19T15:48:05.378Z,12.30
2023-02-19T15:50:37.244Z,12.30
2023-02-19T15:53:10.641Z,12.30
2023-02-19T15:55:43.091Z,12.30
2023-02-19T15:58:20.129Z,12.20
2023-02-19T16:00:51.681Z,12.20
2023-02-19T16:03:22.299Z,12.20
2023-02-19T16:06:00.553Z,12.20
2023-02-19T16:08:33.183Z,12.20
2023-02-19T16:11:03.482Z,12.00
2023-02-19T16:13:33.747Z,12.00
2023-02-19T16:16:15.390Z,11.90
2023-02-19T16:18:47.833Z,11.80
2023-02-19T16:21:19.350Z,11.60
2023-02-19T16:23:52.259Z,11.40
2023-02-19T16:26:21.806Z,11.30
2023-02-19T16:28:53.521Z,11.30
2023-02-19T16:31:24.000Z,11.20
2023-02-19T16:33:52.531Z,11.20
2023-02-19T16:36:29.644Z,11.10
2023-02-19T16:39:20.392Z,11.10
2023-02-19T16:42:14.598Z,11.10
2023-02-19T16:44:47.242Z,11.20
2023-02-19T16:47:28.445Z,11.00
2023-02-19T16:49:59.215Z,11.00
2023-02-19T16:52:27.837Z,10.80
2023-02-19T16:54:57.568Z,11.00
2023-02-19T16:57:25.964Z,11.00
2023-02-19T16:59:54.300Z,10.90
2023-02-19T17:02:24.765Z,10.90
2023-02-19T17:04:55.240Z,10.80
2023-02-19T17:07:24.038Z,10.80
2023-02-19T17:09:52.435Z,10.70
2023-02-19T17:12:23.311Z,10.80
2023-02-19T17:14:51.642Z,10.80
2023-02-19T17:17:19.984Z,10.80
2023-02-19T17:19:48.546Z,10.80
2023-02-19T17:22:16.982Z,10.90
2023-02-19T17:24:45.993Z,10.90
2023-02-19T17:27:14.857Z,10.90
2023-02-19T17:29:44.761Z,10.90
2023-02-19T17:32:14.563Z,10.80
2023-02-19T17:34:43.251Z,10.80
2023-02-19T17:37:12.321Z,10.80
2023-02-19T17:39:40.795Z,10.80
2023-02-19T17:42:09.613Z,10.90
2023-02-19T17:44:38.489Z,10.90
2023-02-19T17:47:08.587Z,11.00
2023-02-19T17:49:37.230Z,10.90
2023-02-19T17:52:06.507Z,10.90
2023-02-19T17:54:35.427Z,10.90
2023-02-19T17:57:04.602Z,10.90
2023-02-19T17:59:33.191Z,11.00
2023-02-19T18:02:03.250Z,11.00
2023-02-19T18:04:36.197Z,11.00
2023-02-19T18:07:05.720Z,11.00
2023-02-19T18:09:34.287Z,11.00
2023-02-19T18:12:03.347Z,11.00
2023-02-19T18:14:32.036Z,10.90
2023-02-19T18:17:00.541Z,10.90
2023-02-19T18:19:29.125Z,10.90
2023-02-19T18:21:58.906Z,10.80
2023-02-19T18:24:27.388Z,10.70
2023-02-19T18:26:55.792Z,10.70
2023-02-19T18:29:25.992Z,10.70
2023-02-19T18:31:54.529Z,10.70
2023-02-19T18:34:23.399Z,10.60
2023-02-19T18:36:52.376Z,10.50
2023-02-19T18:39:22.197Z,10.50
2023-02-19T18:41:52.357Z,10.50
2023-02-19T18:44:22.297Z,10.50
2023-02-19T18:46:52.720Z,10.50
2023-02-19T18:49:21.074Z,10.50
2023-02-19T18:51:49.796Z,10.60
2023-02-19T18:54:18.300Z,10.60
2023-02-19T18:56:48.931Z,10.70
2023-02-19T18:59:17.745Z,10.70
2023-02-19T19:01:46.193Z,10.80
2023-02-19T19:04:14.733Z,10.70
2023-02-19T19:06:43.284Z,10.80
2023-02-19T19:09:11.781Z,10.80
2023-02-19T19:11:41.391Z,10.80
2023-02-19T19:14:11.636Z,10.80
2023-02-19T19:16:40.770Z,10.80
2023-02-19T19:19:09.349Z,10.80
2023-02-19T19:21:38.506Z,10.90
2023-02-19T19:24:07.730Z,10.90
2023-02-19T19:26:36.682Z,10.90
2023-02-19T19:29:05.909Z,10.90
2023-02-19T19:31:37.824Z,10.90
2023-02-19T19:34:06.292Z,10.90
2023-02-19T19:36:35.176Z,10.90
2023-02-19T19:39:04.113Z,10.90
2023-02-19T19:41:32.967Z,10.90
2023-02-19T19:44:04.407Z,10.90
2023-02-19T19:46:33.212Z,10.90
2023-02-19T19:49:03.343Z,11.00
2023-02-19T19:51:36.095Z,10.90
2023-02-19T19:54:05.077Z,10.90
2023-02-19T19:56:33.613Z,10.90
2023-02-19T19:59:02.042Z,10.90
2023-02-19T20:01:30.661Z,10.90
2023-02-19T20:03:59.151Z,10.60
2023-02-19T20:06:31.918Z,11.00
2023-02-19T20:09:00.910Z,10.90
2023-02-19T20:11:29.608Z,11.00
2023-02-19T20:13:58.195Z,10.90
2023-02-19T20:16:27.647Z,10.90
2023-02-19T20:18:56.300Z,11.00
2023-02-19T20:21:26.465Z,11.00
2023-02-19T20:23:56.359Z,11.00
2023-02-19T20:26:29.727Z,11.00
2023-02-19T20:28:59.377Z,11.00
2023-02-19T20:31:30.741Z,11.00
2023-02-19T20:34:00.140Z,11.00
2023-02-19T20:36:29.632Z,11.00
2023-02-19T20:38:59.857Z,10.90
2023-02-19T20:41:29.349Z,10.90
2023-02-19T20:43:58.869Z,10.90
2023-02-19T20:46:31.156Z,10.80
2023-02-19T20:49:02.415Z,10.80
2023-02-19T20:51:33.305Z,10.70
2023-02-19T20:54:05.904Z,10.70
2023-02-19T20:56:38.666Z,10.70
2023-02-19T20:59:10.632Z,10.70
2023-02-19T21:01:40.093Z,10.60
2023-02-19T21:04:09.520Z,10.60
2023-02-19T21:06:39.255Z,10.60
2023-02-19T21:09:10.103Z,10.60
2023-02-19T21:11:39.784Z,10.20
2023-02-19T21:14:09.896Z,10.60
2023-02-19T21:16:39.659Z,10.60
2023-02-19T21:19:11.182Z,10.60
2023-02-19T21:21:40.963Z,10.60
2023-02-19T21:24:14.853Z,10.60
2023-02-19T21:26:44.701Z,10.60
2023-02-19T21:29:18.916Z,10.60
2023-02-19T21:31:50.279Z,10.60
2023-02-19T21:34:22.427Z,10.60
2023-02-19T21:36:50.811Z,10.60
2023-02-19T21:39:21.687Z,10.60
2023-02-19T21:41:50.564Z,10.60
2023-02-19T21:44:19.175Z,10.60
2023-02-19T21:46:47.785Z,10.60
2023-02-19T21:49:16.346Z,10.60
2023-02-19T21:51:47.980Z,10.60
2023-02-19T21:54:18.120Z,10.80
2023-02-19T21:56:48.689Z,10.60
2023-02-19T21:59:17.326Z,10.60
2023-02-19T22:01:46.146Z,10.70
2023-02-19T22:04:16.778Z,10.60
2023-02-19T22:06:45.507Z,10.60
2023-02-19T22:09:15.177Z,10.60
2023-02-19T22:11:43.901Z,10.60
2023-02-19T22:14:13.561Z,10.60
2023-02-19T22:16:42.365Z,10.60
2023-02-19T22:19:12.088Z,10.70
2023-02-19T22:21:44.195Z,10.70
2023-02-19T22:24:17.801Z,10.70
2023-02-19T22:26:47.040Z,10.70
2023-02-19T22:29:17.976Z,10.70
2023-02-19T22:31:46.573Z,10.70
2023-02-19T22:34:16.202Z,10.70
2023-02-19T22:36:45.215Z,10.70
2023-02-19T22:39:19.860Z,10.70
2023-02-19T22:41:48.383Z,10.70
2023-02-19T22:44:18.676Z,10.70
2023-02-19T22:46:49.569Z,10.70
2023-02-19T22:49:18.700Z,10.70
2023-02-19T22:51:53.346Z,10.70
2023-02-19T22:54:24.995Z,10.70
2023-02-19T22:56:53.727Z,10.60
2023-02-19T22:59:24.214Z,10.60
2023-02-19T23:01:52.939Z,10.70
2023-02-19T23:04:22.890Z,10.60
2023-02-19T23:06:54.438Z,10.60
2023-02-19T23:09:25.040Z,10.60
2023-02-19T23:11:53.808Z,10.60
2023-02-19T23:14:24.399Z,10.60
2023-02-19T23:16:52.926Z,10.60
2023-02-19T23:19:21.430Z,10.60
2023-02-19T23:21:50.271Z,10.60
2023-02-19T23:24:18.743Z,10.60
2023-02-19T23:26:48.614Z,10.60
2023-02-19T23:29:18.004Z,10.60
2023-02-19T23:31:48.079Z,10.60
2023-02-19T23:34:16.735Z,10.60
2023-02-19T23:36:46.693Z,10.60
2023-02-19T23:39:17.488Z,10.60
2023-02-19T23:41:49.744Z,10.60
2023-02-19T23:44:20.769Z,10.60
2023-02-19T23:46:51.396Z,10.60
2023-02-19T23:49:20.136Z,10.60
2023-02-19T23:51:48.604Z,10.60
2023-02-19T23:54:16.897Z,10.60
2023-02-19T23:56:45.576Z,10.80
2023-02-19T23:59:13.881Z,10.60
